createdAt,value
2018-04-28T00:00:50.732Z,42.34
2018-04-28T00:03:18.149Z,42.33
2018-04-28T00:05:45.549Z,42.31
2018-04-28T00:08:13.771Z,42.92
2018-04-28T00:10:41.254Z,42.49
2018-04-28T00:13:08.679Z,42.56
2018-04-28T00:15:36.169Z,42.71
2018-04-28T00:18:03.708Z,42.76
2018-04-28T00:20:31.138Z,42.95
2018-04-28T00:23:03.317Z,42.99
2018-04-28T00:25:44.508Z,42.98
2018-04-28T00:28:25.511Z,42.93
2018-04-28T00:30:59.496Z,42.93
2018-04-28T00:33:31.880Z,42.78
2018-04-28T00:36:19.051Z,42.83
2018-04-28T00:38:53.345Z,42.77
2018-04-28T00:41:20.803Z,42.86
2018-04-28T00:43:48.198Z,42.80
2018-04-28T00:46:22.148Z,42.92
2018-04-28T00:48:57.914Z,42.93
2018-04-28T00:51:31.314Z,42.74
2018-04-28T00:54:15.380Z,42.93
2018-04-28T00:59:40.843Z,42.70
2018-04-28T01:02:10.333Z,42.86
2018-04-28T01:04:40.688Z,42.94
2018-04-28T01:07:08.109Z,43.01
2018-04-28T01:09:35.551Z,43.14
2018-04-28T01:12:02.965Z,43.15
2018-04-28T01:14:37.078Z,43.27
2018-04-28T01:17:08.461Z,43.17
2018-04-28T01:19:52.571Z,43.28
2018-04-28T01:22:40.927Z,43.17
2018-04-28T01:25:11.020Z,43.37
2018-04-28T01:27:48.988Z,43.52
2018-04-28T01:30:35.174Z,43.62
2018-04-28T01:36:03.537Z,43.51
2018-04-28T01:38:35.383Z,43.42
2018-04-28T01:41:14.493Z,43.28
2018-04-28T01:43:49.881Z,43.18
2018-04-28T01:46:22.912Z,43.56
2018-04-28T01:49:05.314Z,43.62
2018-04-28T01:51:43.122Z,43.68
2018-04-28T01:57:23.319Z,42.97
2018-04-28T02:00:10.539Z,42.86
2018-04-28T02:09:05.496Z,43.31
2018-04-28T02:11:46.568Z,43.26
2018-04-28T02:17:12.065Z,43.27
2018-04-28T02:19:42.187Z,43.53
2018-04-28T02:22:15.343Z,44.81
2018-04-28T02:24:57.543Z,45.86
2018-04-28T02:27:35.855Z,45.71
2018-04-28T02:30:04.136Z,45.76
2018-04-28T02:32:32.552Z,45.79
2018-04-28T02:35:00.776Z,45.82
2018-04-28T02:40:27.819Z,44.98
2018-04-28T02:42:58.703Z,44.63
2018-04-28T02:45:45.818Z,44.47
2018-04-28T02:48:17.863Z,44.65
2018-04-28T02:50:46.815Z,44.76
2018-04-28T02:53:18.065Z,45.07
2018-04-28T02:56:03.196Z,45.08
2018-04-28T02:58:40.661Z,45.21
2018-04-28T03:04:07.190Z,44.74
2018-04-28T03:06:48.401Z,44.59
2018-04-28T03:09:15.855Z,44.63
2018-04-28T03:11:45.163Z,44.34
2018-04-28T03:14:17.240Z,44.15
2018-04-28T03:16:56.044Z,44.34
2018-04-28T03:19:26.057Z,44.58
2018-04-28T03:21:54.351Z,44.49
2018-04-28T03:24:24.707Z,44.35
2018-04-28T03:26:58.944Z,44.38
2018-04-28T03:29:35.048Z,44.66
2018-04-28T03:32:06.274Z,45.00
2018-04-28T03:34:43.215Z,45.14
2018-04-28T03:37:22.486Z,44.84
2018-04-28T03:40:23.412Z,44.65
2018-04-28T03:42:51.664Z,44.79
2018-04-28T03:45:25.867Z,44.76
2018-04-28T03:48:07.045Z,44.83
2018-04-28T03:50:35.095Z,44.33
2018-04-28T03:53:07.088Z,44.68
2018-04-28T03:55:35.354Z,44.71
2018-04-28T03:58:14.579Z,44.96
2018-04-28T04:00:54.020Z,45.05
2018-04-28T04:03:22.268Z,45.00
2018-04-28T04:08:49.201Z,45.82
2018-04-28T04:11:30.468Z,46.03
2018-04-28T04:14:07.075Z,46.34
2018-04-28T04:16:40.830Z,46.68
2018-04-28T04:19:10.785Z,47.09
2018-04-28T04:21:50.989Z,46.92
2018-04-28T04:24:20.831Z,46.28
2018-04-28T04:26:59.967Z,46.14
2018-04-28T04:32:29.775Z,46.65
2018-04-28T04:38:08.800Z,47.55
2018-04-28T04:40:56.945Z,47.54
2018-04-28T04:43:40.080Z,48.18
2018-04-28T04:49:17.122Z,47.80
2018-04-28T04:51:46.076Z,47.30
2018-04-28T04:57:11.501Z,48.75
2018-04-28T05:02:40.604Z,49.75
2018-04-28T05:05:14.001Z,50.27
2018-04-28T05:10:47.118Z,51.01
2018-04-28T05:13:20.312Z,50.34
2018-04-28T05:15:53.554Z,50.54
2018-04-28T05:21:28.584Z,51.18
2018-04-28T05:24:07.572Z,50.13
2018-04-28T05:26:37.719Z,49.65
2018-04-28T05:32:19.828Z,48.32
2018-04-28T05:37:57.096Z,48.05
2018-04-28T05:40:41.259Z,48.21
2018-04-28T05:43:17.097Z,48.49
2018-04-28T05:45:56.148Z,48.67
2018-04-28T05:51:34.043Z,47.95
2018-04-28T05:54:03.989Z,47.36
2018-04-28T05:56:41.034Z,47.65
2018-04-28T05:59:10.295Z,48.00
2018-04-28T06:02:00.525Z,48.32
2018-04-28T06:07:52.675Z,48.41
2018-04-28T06:10:50.724Z,47.45
2018-04-28T06:13:29.638Z,47.11
2018-04-28T06:19:12.810Z,47.27
2018-04-28T06:21:40.284Z,47.35
2018-04-28T06:24:07.753Z,47.37
2018-04-28T06:26:35.247Z,47.63
2018-04-28T06:29:02.705Z,47.58
2018-04-28T06:31:30.184Z,47.50
2018-04-28T06:33:57.614Z,47.34
2018-04-28T06:36:25.052Z,47.35
2018-04-28T06:38:52.472Z,47.22
2018-04-28T06:41:19.919Z,47.50
2018-04-28T06:43:47.383Z,47.49
2018-04-28T06:46:14.820Z,47.35
2018-04-28T06:48:42.294Z,47.15
2018-04-28T06:51:09.783Z,46.84
2018-04-28T06:53:37.176Z,46.71
2018-04-28T06:56:04.642Z,46.54
2018-04-28T06:58:32.214Z,46.88
2018-04-28T07:00:59.795Z,47.19
2018-04-28T07:03:27.242Z,47.31
2018-04-28T07:05:54.715Z,46.99
2018-04-28T07:08:22.322Z,46.05
2018-04-28T07:10:49.853Z,45.25
2018-04-28T07:13:17.228Z,44.59
2018-04-28T07:15:44.660Z,44.45
2018-04-28T07:18:12.099Z,44.44
2018-04-28T07:20:39.542Z,44.35
2018-04-28T07:23:06.984Z,43.55
2018-04-28T07:25:34.517Z,42.32
2018-04-28T07:28:01.992Z,41.18
2018-04-28T07:30:29.648Z,40.18
2018-04-28T07:32:57.935Z,39.70
2018-04-28T07:35:25.433Z,39.65
2018-04-28T07:37:52.896Z,39.70
2018-04-28T07:40:20.354Z,39.66
2018-04-28T07:42:47.796Z,38.78
2018-04-28T07:45:15.266Z,39.84
2018-04-28T07:47:42.777Z,40.10
2018-04-28T07:50:10.298Z,39.06
2018-04-28T07:52:37.750Z,37.86
2018-04-28T07:55:05.218Z,37.62
2018-04-28T07:57:33.214Z,37.08
2018-04-28T08:00:00.699Z,36.77
2018-04-28T08:02:28.136Z,36.45
2018-04-28T08:04:55.600Z,36.59
2018-04-28T08:07:23.032Z,35.79
2018-04-28T08:09:50.493Z,34.67
2018-04-28T08:12:17.999Z,34.05
2018-04-28T08:14:45.435Z,33.96
2018-04-28T08:17:12.889Z,33.79
2018-04-28T08:19:40.297Z,32.92
2018-04-28T08:22:09.280Z,32.16
2018-04-28T08:24:36.788Z,32.97
2018-04-28T08:27:04.282Z,33.72
2018-04-28T08:29:31.751Z,33.25
2018-04-28T08:31:59.187Z,32.37
2018-04-28T08:34:26.656Z,32.34
2018-04-28T08:36:54.239Z,32.66
2018-04-28T08:39:21.713Z,34.07
2018-04-28T08:41:49.358Z,36.35
2018-04-28T08:44:17.099Z,37.34
2018-04-28T08:46:44.820Z,36.62
2018-04-28T08:49:12.275Z,36.65
2018-04-28T08:51:39.751Z,36.86
2018-04-28T08:54:07.219Z,36.58
2018-04-28T08:56:34.733Z,36.61
2018-04-28T08:59:02.130Z,35.97
2018-04-28T09:01:29.543Z,36.36
2018-04-28T09:03:56.949Z,35.76
2018-04-28T09:06:24.482Z,35.59
2018-04-28T09:08:52.000Z,35.68
2018-04-28T09:11:19.606Z,35.93
2018-04-28T09:13:47.092Z,36.64
2018-04-28T09:16:14.523Z,37.29
2018-04-28T09:18:41.979Z,37.25
2018-04-28T09:21:09.485Z,36.92
2018-04-28T09:23:37.090Z,36.48
2018-04-28T09:26:04.772Z,35.87
2018-04-28T09:28:32.202Z,35.42
2018-04-28T09:30:59.708Z,34.64
2018-04-28T09:33:27.173Z,34.03
2018-04-28T09:35:54.817Z,33.74
2018-04-28T09:38:22.294Z,33.70
2018-04-28T09:40:50.128Z,33.79
2018-04-28T09:43:17.588Z,34.07
2018-04-28T09:45:45.049Z,34.34
2018-04-28T09:48:12.520Z,34.54
2018-04-28T09:50:40.193Z,34.28
2018-04-28T09:53:07.647Z,33.56
2018-04-28T09:55:35.072Z,32.97
2018-04-28T09:58:05.229Z,33.24
2018-04-28T10:00:35.628Z,32.69
2018-04-28T10:03:05.933Z,32.45
2018-04-28T10:05:33.433Z,32.10
2018-04-28T10:08:01.121Z,32.42
2018-04-28T10:10:28.620Z,32.19
2018-04-28T10:12:56.185Z,32.19
2018-04-28T10:15:23.635Z,31.67
2018-04-28T10:17:51.138Z,32.05
2018-04-28T10:20:18.596Z,32.16
2018-04-28T10:22:46.016Z,31.84
2018-04-28T10:25:13.548Z,32.09
2018-04-28T10:27:41.081Z,32.69
2018-04-28T10:30:08.537Z,32.90
2018-04-28T10:32:36.037Z,32.39
2018-04-28T10:35:03.512Z,32.37
2018-04-28T10:37:30.987Z,32.00
2018-04-28T10:39:58.456Z,32.59
2018-04-28T10:42:25.899Z,33.58
2018-04-28T10:44:53.378Z,34.26
2018-04-28T10:47:20.817Z,34.37
2018-04-28T10:49:48.269Z,34.68
2018-04-28T10:52:15.729Z,35.29
2018-04-28T10:54:43.423Z,35.33
2018-04-28T10:57:10.859Z,34.94
2018-04-28T10:59:38.260Z,33.84
2018-04-28T11:02:05.719Z,33.41
2018-04-28T11:04:33.193Z,33.08
2018-04-28T11:07:00.602Z,33.03
2018-04-28T11:09:28.071Z,32.75
2018-04-28T11:11:55.584Z,33.08
2018-04-28T11:14:23.032Z,32.75
2018-04-28T11:16:50.512Z,32.34
2018-04-28T11:19:18.009Z,31.92
2018-04-28T11:21:45.414Z,32.20
2018-04-28T11:24:12.950Z,32.24
2018-04-28T11:26:40.392Z,31.71
2018-04-28T11:29:07.834Z,31.31
2018-04-28T11:31:35.306Z,31.58
2018-04-28T11:34:02.732Z,31.24
2018-04-28T11:36:30.595Z,30.52
2018-04-28T11:38:58.171Z,30.61
2018-04-28T11:41:27.523Z,29.97
2018-04-28T11:43:55.169Z,30.33
2018-04-28T11:46:23.240Z,29.89
2018-04-28T11:48:51.483Z,29.93
2018-04-28T11:51:20.753Z,29.72
2018-04-28T11:53:50.782Z,29.61
2018-04-28T11:56:18.219Z,29.11
2018-04-28T11:58:47.069Z,29.07
2018-04-28T12:01:14.532Z,28.92
2018-04-28T12:03:43.650Z,28.58
2018-04-28T12:06:11.238Z,28.43
2018-04-28T12:08:39.043Z,28.23
2018-04-28T12:11:06.753Z,27.62
2018-04-28T12:13:34.959Z,27.20
2018-04-28T12:16:03.383Z,27.67
2018-04-28T12:18:32.566Z,27.57
2018-04-28T12:21:01.027Z,28.10
2018-04-28T12:23:28.432Z,28.37
2018-04-28T12:25:55.877Z,28.46
2018-04-28T12:28:24.231Z,28.36
2018-04-28T12:30:53.427Z,28.66
2018-04-28T12:33:22.917Z,29.27
2018-04-28T12:35:50.428Z,29.71
2018-04-28T12:38:17.864Z,30.00
2018-04-28T12:40:46.974Z,30.38
2018-04-28T12:43:14.847Z,30.46
2018-04-28T12:45:42.486Z,30.81
2018-04-28T12:48:10.038Z,30.74
2018-04-28T12:50:37.480Z,30.47
2018-04-28T12:53:04.986Z,30.48
2018-04-28T12:55:32.400Z,30.67
2018-04-28T12:57:59.904Z,30.56
2018-04-28T13:00:27.385Z,29.93
2018-04-28T13:02:54.824Z,29.31
2018-04-28T13:05:22.294Z,28.76
2018-04-28T13:07:49.811Z,28.56
2018-04-28T13:10:17.202Z,28.94
2018-04-28T13:12:45.356Z,28.56
2018-04-28T13:15:12.756Z,28.87
2018-04-28T13:17:40.187Z,28.67
2018-04-28T13:20:07.647Z,28.59
2018-04-28T13:22:35.079Z,28.67
2018-04-28T13:25:02.517Z,28.30
2018-04-28T13:27:30.016Z,27.91
2018-04-28T13:29:57.476Z,27.12
2018-04-28T13:32:24.906Z,27.19
2018-04-28T13:34:52.348Z,27.37
2018-04-28T13:37:19.766Z,27.74
2018-04-28T13:39:47.217Z,28.45
2018-04-28T13:42:14.653Z,28.34
2018-04-28T13:44:42.060Z,28.54
2018-04-28T13:47:09.472Z,28.00
2018-04-28T13:49:36.909Z,28.05
2018-04-28T13:52:04.310Z,28.23
2018-04-28T13:54:31.780Z,28.18
2018-04-28T13:56:59.271Z,28.45
2018-04-28T13:59:26.699Z,29.03
2018-04-28T14:01:54.188Z,28.94
2018-04-28T14:04:21.666Z,29.09
2018-04-28T14:06:49.088Z,29.19
2018-04-28T14:09:16.490Z,29.18
2018-04-28T14:11:43.955Z,29.18
2018-04-28T14:14:11.346Z,29.02
2018-04-28T14:16:38.772Z,28.95
2018-04-28T14:19:06.226Z,29.59
2018-04-28T14:21:33.732Z,30.00
2018-04-28T14:24:01.166Z,30.05
2018-04-28T14:26:28.653Z,30.35
2018-04-28T14:28:56.088Z,30.57
2018-04-28T14:31:23.499Z,30.98
2018-04-28T14:33:50.894Z,31.75
2018-04-28T14:36:18.313Z,31.73
2018-04-28T14:38:45.780Z,31.62
2018-04-28T14:41:13.292Z,31.79
2018-04-28T14:43:40.716Z,31.68
2018-04-28T14:46:08.222Z,31.88
2018-04-28T14:48:35.612Z,32.47
2018-04-28T14:51:03.114Z,32.66
2018-04-28T14:53:30.557Z,32.36
2018-04-28T14:55:57.999Z,32.17
2018-04-28T14:58:25.409Z,32.27
2018-04-28T15:00:52.838Z,32.12
2018-04-28T15:03:20.267Z,32.40
2018-04-28T15:05:47.676Z,32.61
2018-04-28T15:08:15.143Z,32.77
2018-04-28T15:10:42.683Z,33.02
2018-04-28T15:13:10.125Z,32.66
2018-04-28T15:15:37.601Z,32.62
2018-04-28T15:18:05.080Z,32.67
2018-04-28T15:20:32.497Z,32.56
2018-04-28T15:22:59.931Z,33.17
2018-04-28T15:25:27.391Z,33.51
2018-04-28T15:27:54.796Z,34.02
2018-04-28T15:30:22.203Z,34.36
2018-04-28T15:32:49.645Z,33.33
2018-04-28T15:35:17.140Z,33.10
2018-04-28T15:37:44.576Z,32.81
2018-04-28T15:40:12.124Z,33.05
2018-04-28T15:42:39.578Z,33.88
2018-04-28T15:45:07.072Z,33.69
2018-04-28T15:47:34.479Z,37.30
2018-04-28T15:50:01.972Z,38.55
2018-04-28T15:52:29.431Z,38.91
2018-04-28T15:54:56.875Z,39.03
2018-04-28T15:57:24.369Z,39.28
2018-04-28T15:59:51.795Z,40.19
2018-04-28T16:02:19.238Z,40.47
2018-04-28T16:04:46.688Z,40.70
2018-04-28T16:07:14.192Z,40.63
2018-04-28T16:09:41.687Z,41.12
2018-04-28T16:12:09.122Z,41.43
2018-04-28T16:14:36.580Z,41.56
2018-04-28T16:17:04.065Z,41.86
2018-04-28T16:19:31.497Z,41.82
2018-04-28T16:21:58.976Z,41.97
2018-04-28T16:24:26.578Z,42.39
2018-04-28T16:26:54.065Z,42.54
2018-04-28T16:29:21.575Z,42.60
2018-04-28T16:31:49.022Z,42.43
2018-04-28T16:34:16.433Z,42.40
2018-04-28T16:36:43.888Z,42.36
2018-04-28T16:39:11.381Z,42.47
2018-04-28T16:41:38.852Z,42.82
2018-04-28T16:44:06.258Z,42.77
2018-04-28T16:46:33.749Z,42.69
2018-04-28T16:49:01.248Z,42.79
2018-04-28T16:51:28.679Z,42.82
2018-04-28T16:53:56.101Z,42.82
2018-04-28T16:56:23.545Z,42.96
2018-04-28T16:58:50.932Z,43.21
2018-04-28T17:01:18.485Z,43.39
2018-04-28T17:03:45.931Z,43.72
2018-04-28T17:06:13.687Z,43.98
2018-04-28T17:08:41.181Z,44.01
2018-04-28T17:11:08.712Z,44.02
2018-04-28T17:13:36.158Z,43.94
2018-04-28T17:16:03.581Z,43.77
2018-04-28T17:18:31.073Z,43.83
2018-04-28T17:20:58.465Z,44.06
2018-04-28T17:23:25.927Z,44.34
2018-04-28T17:25:53.378Z,44.45
2018-04-28T17:28:20.945Z,44.53
2018-04-28T17:30:48.467Z,44.75
2018-04-28T17:33:15.912Z,44.93
2018-04-28T17:35:43.391Z,45.22
2018-04-28T17:38:10.843Z,44.96
2018-04-28T17:40:38.313Z,45.07
2018-04-28T17:43:05.748Z,45.41
2018-04-28T17:45:33.234Z,45.07
2018-04-28T17:48:00.679Z,45.15
2018-04-28T17:50:28.163Z,45.13
2018-04-28T17:52:55.681Z,45.53
2018-04-28T17:55:23.324Z,45.46
2018-04-28T17:57:50.799Z,45.61
2018-04-28T18:00:18.262Z,45.80
2018-04-28T18:02:45.794Z,45.90
2018-04-28T18:05:13.503Z,45.76
2018-04-28T18:07:40.996Z,45.80
2018-04-28T18:10:08.493Z,45.68
2018-04-28T18:12:36.022Z,45.47
2018-04-28T18:15:03.455Z,45.63
2018-04-28T18:17:30.925Z,46.06
2018-04-28T18:19:58.420Z,46.17
2018-04-28T18:22:25.900Z,46.16
2018-04-28T18:24:53.453Z,46.30
2018-04-28T18:27:21.000Z,46.34
2018-04-28T18:29:48.416Z,46.39
2018-04-28T18:32:16.346Z,46.50
2018-04-28T18:34:43.759Z,46.58
2018-04-28T18:37:11.203Z,46.59
2018-04-28T18:39:38.796Z,46.72
2018-04-28T18:42:06.241Z,47.11
2018-04-28T18:44:34.250Z,47.09
2018-04-28T18:47:01.765Z,47.11
2018-04-28T18:49:29.183Z,47.18
2018-04-28T18:51:56.712Z,47.31
2018-04-28T18:54:24.122Z,47.41
2018-04-28T18:56:51.565Z,47.62
2018-04-28T18:59:18.995Z,47.94
2018-04-28T19:01:46.437Z,48.19
2018-04-28T19:04:13.892Z,48.22
2018-04-28T19:06:41.360Z,48.35
2018-04-28T19:09:08.969Z,48.51
2018-04-28T19:11:36.420Z,48.91
2018-04-28T19:14:03.916Z,49.05
2018-04-28T19:16:31.386Z,49.28
2018-04-28T19:18:58.851Z,49.20
2018-04-28T19:21:26.391Z,49.35
2018-04-28T19:23:53.793Z,49.27
2018-04-28T19:26:21.214Z,49.50
2018-04-28T19:28:48.871Z,49.54
2018-04-28T19:31:16.336Z,49.54
2018-04-28T19:33:43.764Z,49.56
2018-04-28T19:36:11.199Z,49.62
2018-04-28T19:38:38.656Z,49.76
2018-04-28T19:41:06.192Z,49.79
2018-04-28T19:43:33.784Z,49.63
2018-04-28T19:46:01.964Z,49.84
2018-04-28T19:48:29.395Z,49.71
2018-04-28T19:50:56.840Z,49.50
2018-04-28T19:53:24.325Z,49.96
2018-04-28T19:55:51.796Z,50.12
2018-04-28T19:58:19.260Z,50.05
2018-04-28T20:00:46.695Z,50.01
2018-04-28T20:03:14.104Z,49.93
2018-04-28T20:05:41.558Z,49.97
2018-04-28T20:08:09.009Z,50.07
2018-04-28T20:10:36.425Z,50.26
2018-04-28T20:13:03.868Z,50.18
2018-04-28T20:15:31.267Z,50.21
2018-04-28T20:17:58.698Z,50.29
2018-04-28T20:20:26.169Z,50.39
2018-04-28T20:23:05.404Z,50.60
2018-04-28T20:25:32.798Z,50.95
2018-04-28T20:28:00.244Z,50.95
2018-04-28T20:30:27.646Z,51.17
2018-04-28T20:32:55.129Z,51.27
2018-04-28T20:35:22.572Z,51.42
2018-04-28T20:37:50.034Z,51.45
2018-04-28T20:40:17.443Z,51.33
2018-04-28T20:42:44.889Z,51.41
2018-04-28T20:45:12.313Z,51.74
2018-04-28T20:47:39.844Z,51.83
2018-04-28T20:50:07.266Z,52.41
2018-04-28T20:52:34.688Z,52.87
2018-04-28T20:55:02.095Z,53.22
2018-04-28T20:57:29.604Z,53.81
2018-04-28T20:59:57.238Z,53.88
2018-04-28T21:02:25.563Z,53.96
2018-04-28T21:04:53.128Z,54.31
2018-04-28T21:07:20.605Z,54.03
2018-04-28T21:09:48.032Z,54.26
2018-04-28T21:12:15.524Z,55.01
2018-04-28T21:14:42.950Z,55.83
2018-04-28T21:17:10.412Z,56.05
2018-04-28T21:19:37.906Z,56.38
2018-04-28T21:22:05.311Z,56.55
2018-04-28T21:24:32.781Z,57.33
2018-04-28T21:27:00.184Z,57.98
2018-04-28T21:29:27.616Z,58.84
2018-04-28T21:31:55.084Z,59.06
2018-04-28T21:34:22.560Z,59.26
2018-04-28T21:36:50.036Z,59.29
2018-04-28T21:39:17.528Z,59.30
2018-04-28T21:41:44.964Z,59.28
2018-04-28T21:44:12.544Z,59.39
2018-04-28T21:46:40.000Z,59.43
2018-04-28T21:49:07.476Z,59.10
2018-04-28T21:51:34.945Z,58.96
2018-04-28T21:54:02.492Z,58.88
2018-04-28T21:56:29.907Z,58.77
2018-04-28T21:58:57.454Z,58.64
2018-04-28T22:01:24.870Z,58.67
2018-04-28T22:03:52.282Z,58.99
2018-04-28T22:06:19.768Z,59.29
2018-04-28T22:08:47.226Z,59.07
2018-04-28T22:11:14.685Z,59.07
2018-04-28T22:13:42.162Z,59.02
2018-04-28T22:16:09.596Z,59.09
2018-04-28T22:18:37.020Z,59.04
2018-04-28T22:21:04.471Z,59.06
2018-04-28T22:23:31.959Z,59.19
2018-04-28T22:25:59.338Z,58.96
2018-04-28T22:28:26.847Z,58.89
2018-04-28T22:30:54.425Z,58.78
2018-04-28T22:33:21.879Z,58.77
2018-04-28T22:35:49.464Z,58.80
2018-04-28T22:38:16.930Z,58.81
2018-04-28T22:40:44.382Z,59.00
2018-04-28T22:43:11.883Z,59.31
2018-04-28T22:45:39.403Z,59.56
2018-04-28T22:48:06.950Z,59.85
2018-04-28T22:50:34.440Z,59.97
2018-04-28T22:53:01.986Z,59.85
2018-04-28T22:55:30.364Z,59.94
2018-04-28T22:57:57.882Z,59.95
2018-04-28T23:00:25.574Z,59.71
2018-04-28T23:02:53.061Z,59.55
2018-04-28T23:05:20.667Z,59.65
2018-04-28T23:07:48.181Z,60.02
2018-04-28T23:10:15.733Z,60.18
2018-04-28T23:12:43.156Z,60.39
2018-04-28T23:15:10.689Z,60.51
2018-04-28T23:17:38.199Z,60.64
2018-04-28T23:20:05.601Z,61.04
2018-04-28T23:22:33.074Z,61.50
2018-04-28T23:25:00.596Z,61.59
2018-04-28T23:27:28.017Z,61.64
2018-04-28T23:29:55.510Z,61.80
2018-04-28T23:32:23.094Z,61.63
2018-04-28T23:34:50.964Z,61.60
2018-04-28T23:37:18.756Z,61.85
2018-04-28T23:39:46.230Z,62.49
2018-04-28T23:42:13.781Z,62.91
2018-04-28T23:44:41.305Z,63.50
2018-04-28T23:47:08.820Z,63.52
2018-04-28T23:49:36.397Z,63.91
2018-04-28T23:52:04.239Z,64.30
2018-04-28T23:54:31.718Z,64.56
2018-04-28T23:57:00.326Z,64.73
2018-04-28T23:59:27.909Z,64.90
